Ravalli County (6S5)
Hamilton, MT
Field Elevation: 3642
Lat: 45°15.05N  Long: 114°07.31W
CTAF/Unicom Freq: 122.8000
   
     For Weather-by-Phone, call 406-375-9149
Weather Advisories
2017-06-27   03:26 Z
Altimeter 29.87" Hg
Wind 010° @ 6 KT
Gusts 16 KT
Visibility 10 SM
Temperature 26° C (79° F)
Dewpoint 5° C (41° F)
Relative Humidity 27%
Density Altitude 5,700 feet
Condensation Altitude 13,900 feet
Wind and Runways
Indicated Runway = 34
Headwind = 5 kt
Crosswind = 3 kt
History
 
 
 
More Info
NOAA Forecast
 
 
About Us
Belfort Instrument
 
 
FAA Disclaimer: The data displayed is for advisory purposes only and is not to be used for flight planning or operations. For official data, please call 406-375-9149 to hear the current automated AWOS voice message.
  METAR 6S5 270326Z AUTO 01006G16KT 10 SM 26/05 A2987